sensor_id;sensor_type;location;lat;lon;timestamp;pressure;altitude;pressure_sealevel;temperature;humidity
38812;BME280;24553;51.640;-0.752;2022-12-29T00:01:37;98632.47;;;7.80;100.00
38812;BME280;24553;51.640;-0.752;2022-12-29T00:04:03;98616.84;;;7.78;100.00
38812;BME280;24553;51.640;-0.752;2022-12-29T00:06:29;98630.00;;;7.85;100.00
38812;BME280;24553;51.640;-0.752;2022-12-29T00:08:55;98624.34;;;7.81;100.00
38812;BME280;24553;51.640;-0.752;2022-12-29T00:11:23;98634.59;;;7.90;100.00
38812;BME280;24553;51.640;-0.752;2022-12-29T00:13:49;98635.13;;;7.98;100.00
38812;BME280;24553;51.640;-0.752;2022-12-29T00:16:34;98629.41;;;7.83;100.00
38812;BME280;24553;51.640;-0.752;2022-12-29T00:18:59;98624.28;;;7.88;100.00
38812;BME280;24553;51.640;-0.752;2022-12-29T00:21:26;98632.63;;;7.85;100.00
38812;BME280;24553;51.640;-0.752;2022-12-29T00:24:18;98628.97;;;8.04;100.00
38812;BME280;24553;51.640;-0.752;2022-12-29T00:27:13;98619.81;;;8.07;100.00
38812;BME280;24553;51.640;-0.752;2022-12-29T00:29:57;98612.84;;;8.13;100.00
38812;BME280;24553;51.640;-0.752;2022-12-29T00:32:41;98623.34;;;8.01;100.00
38812;BME280;24553;51.640;-0.752;2022-12-29T00:35:43;98616.56;;;7.86;100.00
38812;BME280;24553;51.640;-0.752;2022-12-29T00:38:10;98626.84;;;7.95;100.00
38812;BME280;24553;51.640;-0.752;2022-12-29T00:40:55;98634.84;;;8.06;100.00
38812;BME280;24553;51.640;-0.752;2022-12-29T00:43:39;98622.94;;;7.97;100.00
38812;BME280;24553;51.640;-0.752;2022-12-29T00:46:23;98628.31;;;7.91;100.00
38812;BME280;24553;51.640;-0.752;2022-12-29T00:48:48;98620.25;;;7.85;100.00
38812;BME280;24553;51.640;-0.752;2022-12-29T00:51:32;98613.28;;;7.91;100.00
38812;BME280;24553;51.640;-0.752;2022-12-29T00:53:58;98617.50;;;7.74;100.00
38812;BME280;24553;51.640;-0.752;2022-12-29T00:56:23;98619.13;;;7.75;100.00
38812;BME280;24553;51.640;-0.752;2022-12-29T00:58:48;98613.78;;;7.81;100.00
38812;BME280;24553;51.640;-0.752;2022-12-29T01:01:14;98612.84;;;7.94;100.00
38812;BME280;24553;51.640;-0.752;2022-12-29T01:03:39;98619.16;;;7.93;100.00
38812;BME280;24553;51.640;-0.752;2022-12-29T01:06:07;98616.81;;;8.03;100.00
38812;BME280;24553;51.640;-0.752;2022-12-29T01:08:33;98602.38;;;8.06;100.00
38812;BME280;24553;51.640;-0.752;2022-12-29T01:11:07;98602.22;;;8.19;100.00
38812;BME280;24553;51.640;-0.752;2022-12-29T01:13:33;98597.13;;;8.18;100.00
38812;BME280;24553;51.640;-0.752;2022-12-29T01:15:59;98587.63;;;8.17;100.00
38812;BME280;24553;51.640;-0.752;2022-12-29T01:18:25;98579.28;;;8.01;100.00
38812;BME280;24553;51.640;-0.752;2022-12-29T01:20:50;98581.25;;;7.88;100.00
38812;BME280;24553;51.640;-0.752;2022-12-29T01:23:16;98566.38;;;7.75;100.00
38812;BME280;24553;51.640;-0.752;2022-12-29T01:25:42;98578.69;;;7.81;100.00
38812;BME280;24553;51.640;-0.752;2022-12-29T01:28:07;98573.41;;;7.81;100.00
38812;BME280;24553;51.640;-0.752;2022-12-29T01:30:34;98564.03;;;7.85;100.00
38812;BME280;24553;51.640;-0.752;2022-12-29T01:33:00;98563.19;;;7.84;100.00
38812;BME280;24553;51.640;-0.752;2022-12-29T01:35:25;98566.22;;;7.88;100.00
38812;BME280;24553;51.640;-0.752;2022-12-29T01:37:51;98569.56;;;7.77;100.00
38812;BME280;24553;51.640;-0.752;2022-12-29T01:40:16;98584.69;;;7.70;100.00
38812;BME280;24553;51.640;-0.752;2022-12-29T01:42:42;98586.72;;;7.68;100.00
38812;BME280;24553;51.640;-0.752;2022-12-29T01:47:47;98577.63;;;7.63;100.00
38812;BME280;24553;51.640;-0.752;2022-12-29T01:52:49;98597.63;;;7.28;100.00
38812;BME280;24553;51.640;-0.752;2022-12-29T01:55:17;98603.72;;;7.28;100.00
38812;BME280;24553;51.640;-0.752;2022-12-29T01:57:46;98610.28;;;7.44;100.00
38812;BME280;24553;51.640;-0.752;2022-12-29T02:00:14;98601.97;;;7.65;100.00
38812;BME280;24553;51.640;-0.752;2022-12-29T02:02:43;98604.28;;;7.55;100.00
38812;BME280;24553;51.640;-0.752;2022-12-29T02:05:25;98604.66;;;7.59;100.00
38812;BME280;24553;51.640;-0.752;2022-12-29T02:07:53;98598.41;;;7.53;100.00
38812;BME280;24553;51.640;-0.752;2022-12-29T02:10:21;98619.34;;;7.48;100.00
38812;BME280;24553;51.640;-0.752;2022-12-29T02:12:46;98615.16;;;7.40;100.00
38812;BME280;24553;51.640;-0.752;2022-12-29T02:15:12;98599.78;;;7.37;100.00
38812;BME280;24553;51.640;-0.752;2022-12-29T02:20:42;98614.63;;;7.32;100.00
38812;BME280;24553;51.640;-0.752;2022-12-29T02:34:48;98591.41;;;7.65;100.00
38812;BME280;24553;51.640;-0.752;2022-12-29T02:37:21;98597.66;;;7.71;100.00
38812;BME280;24553;51.640;-0.752;2022-12-29T02:39:56;98606.50;;;7.77;100.00
38812;BME280;24553;51.640;-0.752;2022-12-29T02:45:26;98619.53;;;7.72;100.00
38812;BME280;24553;51.640;-0.752;2022-12-29T02:48:16;98615.03;;;7.79;100.00
38812;BME280;24553;51.640;-0.752;2022-12-29T02:51:07;98619.00;;;7.88;100.00
38812;BME280;24553;51.640;-0.752;2022-12-29T02:53:35;98619.34;;;7.92;100.00
38812;BME280;24553;51.640;-0.752;2022-12-29T02:56:20;98612.38;;;7.97;100.00
38812;BME280;24553;51.640;-0.752;2022-12-29T02:58:46;98621.69;;;8.00;100.00
38812;BME280;24553;51.640;-0.752;2022-12-29T03:01:33;98617.97;;;8.07;100.00
38812;BME280;24553;51.640;-0.752;2022-12-29T03:04:16;98611.38;;;7.98;100.00
38812;BME280;24553;51.640;-0.752;2022-12-29T03:14:52;98615.63;;;7.99;100.00
38812;BME280;24553;51.640;-0.752;2022-12-29T03:17:55;98600.19;;;8.03;100.00
38812;BME280;24553;51.640;-0.752;2022-12-29T03:20:27;98606.09;;;7.98;100.00
38812;BME280;24553;51.640;-0.752;2022-12-29T03:23:00;98609.75;;;7.97;100.00
38812;BME280;24553;51.640;-0.752;2022-12-29T03:25:32;98607.84;;;8.04;100.00
38812;BME280;24553;51.640;-0.752;2022-12-29T03:27:59;98612.38;;;8.16;100.00
38812;BME280;24553;51.640;-0.752;2022-12-29T03:30:28;98600.97;;;8.22;100.00
38812;BME280;24553;51.640;-0.752;2022-12-29T03:32:56;98597.44;;;8.28;100.00
38812;BME280;24553;51.640;-0.752;2022-12-29T03:35:25;98614.31;;;8.27;100.00
38812;BME280;24553;51.640;-0.752;2022-12-29T03:38:13;98595.31;;;8.37;100.00
38812;BME280;24553;51.640;-0.752;2022-12-29T03:40:42;98593.84;;;8.41;100.00
38812;BME280;24553;51.640;-0.752;2022-12-29T03:43:09;98595.31;;;8.37;100.00
38812;BME280;24553;51.640;-0.752;2022-12-29T03:45:35;98591.00;;;8.42;100.00
38812;BME280;24553;51.640;-0.752;2022-12-29T03:48:01;98583.53;;;8.39;100.00
38812;BME280;24553;51.640;-0.752;2022-12-29T03:50:26;98587.75;;;8.40;100.00
38812;BME280;24553;51.640;-0.752;2022-12-29T03:52:51;98590.59;;;8.39;100.00
38812;BME280;24553;51.640;-0.752;2022-12-29T03:55:16;98593.31;;;8.50;100.00
38812;BME280;24553;51.640;-0.752;2022-12-29T03:57:42;98592.38;;;8.45;100.00
38812;BME280;24553;51.640;-0.752;2022-12-29T04:00:08;98589.97;;;8.43;100.00
38812;BME280;24553;51.640;-0.752;2022-12-29T04:02:33;98597.84;;;8.62;100.00
38812;BME280;24553;51.640;-0.752;2022-12-29T04:04:58;98591.09;;;8.78;100.00
38812;BME280;24553;51.640;-0.752;2022-12-29T04:07:24;98590.56;;;8.76;100.00
38812;BME280;24553;51.640;-0.752;2022-12-29T04:09:49;98609.22;;;8.62;100.00
38812;BME280;24553;51.640;-0.752;2022-12-29T04:12:15;98618.63;;;8.58;100.00
38812;BME280;24553;51.640;-0.752;2022-12-29T04:14:40;98609.84;;;8.46;100.00
38812;BME280;24553;51.640;-0.752;2022-12-29T04:17:06;98635.78;;;8.49;100.00
38812;BME280;24553;51.640;-0.752;2022-12-29T04:19:31;98635.72;;;8.56;100.00
38812;BME280;24553;51.640;-0.752;2022-12-29T04:21:56;98650.25;;;8.65;100.00
38812;BME280;24553;51.640;-0.752;2022-12-29T04:24:22;98657.06;;;8.54;100.00
38812;BME280;24553;51.640;-0.752;2022-12-29T04:26:47;98657.38;;;8.46;100.00
38812;BME280;24553;51.640;-0.752;2022-12-29T04:29:12;98651.28;;;8.45;100.00
38812;BME280;24553;51.640;-0.752;2022-12-29T04:31:38;98662.31;;;8.42;100.00
38812;BME280;24553;51.640;-0.752;2022-12-29T04:34:03;98661.09;;;8.38;100.00
38812;BME280;24553;51.640;-0.752;2022-12-29T04:36:28;98681.94;;;8.46;100.00
38812;BME280;24553;51.640;-0.752;2022-12-29T04:38:54;98684.59;;;8.65;100.00
38812;BME280;24553;51.640;-0.752;2022-12-29T04:41:19;98690.31;;;8.62;100.00
38812;BME280;24553;51.640;-0.752;2022-12-29T04:43:44;98679.88;;;8.67;100.00
38812;BME280;24553;51.640;-0.752;2022-12-29T04:46:10;98702.84;;;8.66;100.00
38812;BME280;24553;51.640;-0.752;2022-12-29T04:48:35;98692.94;;;8.62;100.00
38812;BME280;24553;51.640;-0.752;2022-12-29T04:51:01;98708.38;;;8.65;100.00
38812;BME280;24553;51.640;-0.752;2022-12-29T04:53:26;98714.00;;;8.68;100.00
38812;BME280;24553;51.640;-0.752;2022-12-29T04:55:52;98724.78;;;8.67;100.00
38812;BME280;24553;51.640;-0.752;2022-12-29T04:58:18;98742.78;;;8.77;100.00
38812;BME280;24553;51.640;-0.752;2022-12-29T05:00:44;98725.19;;;8.70;100.00
38812;BME280;24553;51.640;-0.752;2022-12-29T05:03:09;98749.09;;;8.76;100.00
38812;BME280;24553;51.640;-0.752;2022-12-29T05:05:35;98757.47;;;8.72;100.00
38812;BME280;24553;51.640;-0.752;2022-12-29T05:08:00;98763.25;;;8.63;100.00
38812;BME280;24553;51.640;-0.752;2022-12-29T05:10:26;98785.25;;;8.57;100.00
38812;BME280;24553;51.640;-0.752;2022-12-29T05:12:51;98777.19;;;8.51;100.00
38812;BME280;24553;51.640;-0.752;2022-12-29T05:15:17;98791.75;;;8.36;100.00
38812;BME280;24553;51.640;-0.752;2022-12-29T05:17:42;98804.38;;;8.08;100.00
38812;BME280;24553;51.640;-0.752;2022-12-29T05:20:08;98813.50;;;8.31;100.00
38812;BME280;24553;51.640;-0.752;2022-12-29T05:22:34;98805.53;;;8.44;100.00
38812;BME280;24553;51.640;-0.752;2022-12-29T05:24:59;98816.00;;;8.26;100.00
38812;BME280;24553;51.640;-0.752;2022-12-29T05:27:25;98828.06;;;8.15;100.00
38812;BME280;24553;51.640;-0.752;2022-12-29T05:29:50;98825.44;;;8.15;100.00
38812;BME280;24553;51.640;-0.752;2022-12-29T05:32:15;98836.22;;;8.14;100.00
38812;BME280;24553;51.640;-0.752;2022-12-29T05:34:41;98851.91;;;8.08;100.00
38812;BME280;24553;51.640;-0.752;2022-12-29T05:37:06;98854.31;;;8.10;100.00
38812;BME280;24553;51.640;-0.752;2022-12-29T05:39:31;98863.28;;;8.02;100.00
38812;BME280;24553;51.640;-0.752;2022-12-29T05:41:57;98863.72;;;7.99;100.00
38812;BME280;24553;51.640;-0.752;2022-12-29T05:44:22;98859.31;;;7.93;100.00
38812;BME280;24553;51.640;-0.752;2022-12-29T05:46:48;98864.00;;;7.84;100.00
38812;BME280;24553;51.640;-0.752;2022-12-29T05:49:13;98877.88;;;7.80;100.00
38812;BME280;24553;51.640;-0.752;2022-12-29T05:51:40;98886.69;;;7.60;100.00
38812;BME280;24553;51.640;-0.752;2022-12-29T05:54:05;98896.88;;;7.50;100.00
38812;BME280;24553;51.640;-0.752;2022-12-29T05:56:31;98912.75;;;7.37;100.00
38812;BME280;24553;51.640;-0.752;2022-12-29T05:58:56;98926.97;;;7.36;100.00
38812;BME280;24553;51.640;-0.752;2022-12-29T06:01:21;98930.22;;;7.25;100.00
38812;BME280;24553;51.640;-0.752;2022-12-29T06:03:47;98932.31;;;7.03;100.00
38812;BME280;24553;51.640;-0.752;2022-12-29T06:06:12;98926.19;;;7.09;100.00
38812;BME280;24553;51.640;-0.752;2022-12-29T06:08:37;98937.97;;;7.06;100.00
38812;BME280;24553;51.640;-0.752;2022-12-29T06:11:03;98948.91;;;7.10;100.00
38812;BME280;24553;51.640;-0.752;2022-12-29T06:13:28;98949.53;;;7.05;100.00
38812;BME280;24553;51.640;-0.752;2022-12-29T06:15:54;98962.91;;;7.04;100.00
38812;BME280;24553;51.640;-0.752;2022-12-29T06:18:19;98982.59;;;7.08;100.00
38812;BME280;24553;51.640;-0.752;2022-12-29T06:20:44;98987.22;;;7.19;100.00
38812;BME280;24553;51.640;-0.752;2022-12-29T06:23:10;98988.63;;;7.21;100.00
38812;BME280;24553;51.640;-0.752;2022-12-29T06:25:37;98988.66;;;7.08;100.00
38812;BME280;24553;51.640;-0.752;2022-12-29T06:28:02;98999.81;;;6.97;100.00
38812;BME280;24553;51.640;-0.752;2022-12-29T06:30:28;99009.31;;;6.91;100.00
38812;BME280;24553;51.640;-0.752;2022-12-29T06:32:53;99011.97;;;6.78;100.00
38812;BME280;24553;51.640;-0.752;2022-12-29T06:35:20;99013.59;;;6.79;100.00
38812;BME280;24553;51.640;-0.752;2022-12-29T06:37:46;99017.03;;;6.66;100.00
38812;BME280;24553;51.640;-0.752;2022-12-29T06:40:11;99022.31;;;6.86;100.00
38812;BME280;24553;51.640;-0.752;2022-12-29T06:42:37;99020.69;;;7.12;100.00
38812;BME280;24553;51.640;-0.752;2022-12-29T06:45:02;99021.47;;;7.12;100.00
38812;BME280;24553;51.640;-0.752;2022-12-29T06:47:28;99030.84;;;6.95;100.00
38812;BME280;24553;51.640;-0.752;2022-12-29T06:49:53;99029.19;;;6.81;100.00
38812;BME280;24553;51.640;-0.752;2022-12-29T06:52:18;99026.75;;;6.72;100.00
38812;BME280;24553;51.640;-0.752;2022-12-29T06:54:44;99023.28;;;6.52;100.00
38812;BME280;24553;51.640;-0.752;2022-12-29T06:57:09;99036.66;;;6.44;100.00
38812;BME280;24553;51.640;-0.752;2022-12-29T06:59:35;99050.97;;;6.34;100.00
38812;BME280;24553;51.640;-0.752;2022-12-29T07:02:00;99061.50;;;6.34;100.00
38812;BME280;24553;51.640;-0.752;2022-12-29T07:04:27;99071.91;;;6.63;100.00
38812;BME280;24553;51.640;-0.752;2022-12-29T07:06:52;99077.19;;;6.63;100.00
38812;BME280;24553;51.640;-0.752;2022-12-29T07:09:18;99075.31;;;6.37;100.00
38812;BME280;24553;51.640;-0.752;2022-12-29T07:11:43;99072.28;;;6.46;100.00
38812;BME280;24553;51.640;-0.752;2022-12-29T07:14:10;99080.16;;;6.33;100.00
38812;BME280;24553;51.640;-0.752;2022-12-29T07:16:36;99085.66;;;6.38;100.00
38812;BME280;24553;51.640;-0.752;2022-12-29T07:19:02;99082.25;;;6.51;100.00
38812;BME280;24553;51.640;-0.752;2022-12-29T07:21:27;99092.31;;;6.34;100.00
38812;BME280;24553;51.640;-0.752;2022-12-29T07:23:53;99095.69;;;6.21;100.00
38812;BME280;24553;51.640;-0.752;2022-12-29T07:26:19;99097.25;;;6.02;100.00
38812;BME280;24553;51.640;-0.752;2022-12-29T07:28:44;99089.63;;;6.21;100.00
38812;BME280;24553;51.640;-0.752;2022-12-29T07:31:15;99101.19;;;6.26;100.00
38812;BME280;24553;51.640;-0.752;2022-12-29T07:33:41;99105.19;;;6.16;100.00
38812;BME280;24553;51.640;-0.752;2022-12-29T07:36:07;99109.59;;;6.08;100.00
38812;BME280;24553;51.640;-0.752;2022-12-29T07:38:32;99115.75;;;6.22;100.00
38812;BME280;24553;51.640;-0.752;2022-12-29T07:40:58;99117.16;;;6.18;100.00
38812;BME280;24553;51.640;-0.752;2022-12-29T07:43:23;99122.97;;;6.07;100.00
38812;BME280;24553;51.640;-0.752;2022-12-29T07:45:48;99133.28;;;6.08;100.00
38812;BME280;24553;51.640;-0.752;2022-12-29T07:48:14;99131.91;;;6.13;100.00
38812;BME280;24553;51.640;-0.752;2022-12-29T07:50:39;99144.84;;;6.07;100.00
38812;BME280;24553;51.640;-0.752;2022-12-29T07:53:04;99148.72;;;6.18;100.00
38812;BME280;24553;51.640;-0.752;2022-12-29T07:55:30;99140.03;;;6.24;100.00
38812;BME280;24553;51.640;-0.752;2022-12-29T07:57:56;99140.91;;;6.31;100.00
38812;BME280;24553;51.640;-0.752;2022-12-29T08:00:21;99144.09;;;6.27;100.00
38812;BME280;24553;51.640;-0.752;2022-12-29T08:02:47;99151.47;;;6.38;100.00
38812;BME280;24553;51.640;-0.752;2022-12-29T08:05:12;99152.66;;;6.36;100.00
38812;BME280;24553;51.640;-0.752;2022-12-29T08:07:38;99156.28;;;6.28;100.00
38812;BME280;24553;51.640;-0.752;2022-12-29T08:10:04;99154.69;;;6.33;100.00
38812;BME280;24553;51.640;-0.752;2022-12-29T08:12:29;99159.72;;;6.28;100.00
38812;BME280;24553;51.640;-0.752;2022-12-29T08:14:55;99160.69;;;6.21;100.00
38812;BME280;24553;51.640;-0.752;2022-12-29T08:17:20;99169.38;;;6.21;100.00
38812;BME280;24553;51.640;-0.752;2022-12-29T08:19:46;99185.19;;;6.21;100.00
38812;BME280;24553;51.640;-0.752;2022-12-29T08:22:13;99182.16;;;6.24;100.00
38812;BME280;24553;51.640;-0.752;2022-12-29T08:24:38;99194.97;;;6.27;100.00
38812;BME280;24553;51.640;-0.752;2022-12-29T08:27:04;99198.97;;;6.23;100.00
38812;BME280;24553;51.640;-0.752;2022-12-29T08:29:29;99214.38;;;6.26;100.00
38812;BME280;24553;51.640;-0.752;2022-12-29T08:31:54;99208.78;;;6.43;100.00
38812;BME280;24553;51.640;-0.752;2022-12-29T08:34:20;99224.09;;;6.67;100.00
38812;BME280;24553;51.640;-0.752;2022-12-29T08:36:45;99232.69;;;6.83;100.00
38812;BME280;24553;51.640;-0.752;2022-12-29T08:39:10;99235.53;;;6.88;100.00
38812;BME280;24553;51.640;-0.752;2022-12-29T08:41:36;99241.22;;;6.91;100.00
38812;BME280;24553;51.640;-0.752;2022-12-29T08:44:01;99252.19;;;6.95;100.00
38812;BME280;24553;51.640;-0.752;2022-12-29T08:46:27;99252.19;;;6.95;100.00
38812;BME280;24553;51.640;-0.752;2022-12-29T08:48:53;99250.16;;;6.97;100.00
38812;BME280;24553;51.640;-0.752;2022-12-29T08:51:19;99255.81;;;6.94;100.00
38812;BME280;24553;51.640;-0.752;2022-12-29T08:53:44;99263.88;;;6.86;100.00
38812;BME280;24553;51.640;-0.752;2022-12-29T08:56:10;99271.16;;;6.77;100.00
38812;BME280;24553;51.640;-0.752;2022-12-29T08:58:37;99273.75;;;6.70;100.00
38812;BME280;24553;51.640;-0.752;2022-12-29T09:01:03;99293.38;;;6.61;100.00
38812;BME280;24553;51.640;-0.752;2022-12-29T09:03:29;99286.06;;;6.63;100.00
38812;BME280;24553;51.640;-0.752;2022-12-29T09:05:55;99301.88;;;6.63;100.00
38812;BME280;24553;51.640;-0.752;2022-12-29T09:08:21;99305.28;;;6.57;100.00
38812;BME280;24553;51.640;-0.752;2022-12-29T09:10:47;99312.72;;;6.47;100.00
38812;BME280;24553;51.640;-0.752;2022-12-29T09:13:13;99303.16;;;6.39;100.00
38812;BME280;24553;51.640;-0.752;2022-12-29T09:15:38;99300.94;;;6.43;100.00
38812;BME280;24553;51.640;-0.752;2022-12-29T09:18:04;99317.97;;;6.40;100.00
38812;BME280;24553;51.640;-0.752;2022-12-29T09:20:30;99332.50;;;6.36;100.00
38812;BME280;24553;51.640;-0.752;2022-12-29T09:22:55;99327.25;;;6.43;100.00
38812;BME280;24553;51.640;-0.752;2022-12-29T09:25:20;99335.56;;;6.40;100.00
38812;BME280;24553;51.640;-0.752;2022-12-29T09:27:49;99342.06;;;6.44;100.00
38812;BME280;24553;51.640;-0.752;2022-12-29T09:30:14;99336.50;;;6.32;100.00
38812;BME280;24553;51.640;-0.752;2022-12-29T09:32:40;99344.41;;;6.32;100.00
38812;BME280;24553;51.640;-0.752;2022-12-29T09:35:06;99346.53;;;6.43;100.00
38812;BME280;24553;51.640;-0.752;2022-12-29T09:37:31;99361.72;;;6.48;100.00
38812;BME280;24553;51.640;-0.752;2022-12-29T09:39:57;99358.59;;;6.59;100.00
38812;BME280;24553;51.640;-0.752;2022-12-29T09:47:32;99383.16;;;6.66;100.00
38812;BME280;24553;51.640;-0.752;2022-12-29T09:50:05;99392.13;;;6.78;100.00
38812;BME280;24553;51.640;-0.752;2022-12-29T09:52:48;99396.97;;;7.03;100.00
38812;BME280;24553;51.640;-0.752;2022-12-29T09:55:18;99401.31;;;6.83;100.00
38812;BME280;24553;51.640;-0.752;2022-12-29T09:57:48;99407.22;;;6.91;100.00
38812;BME280;24553;51.640;-0.752;2022-12-29T10:00:19;99393.00;;;6.86;100.00
38812;BME280;24553;51.640;-0.752;2022-12-29T10:02:55;99392.19;;;6.85;100.00
38812;BME280;24553;51.640;-0.752;2022-12-29T10:05:42;99391.34;;;6.78;100.00
38812;BME280;24553;51.640;-0.752;2022-12-29T10:10:57;99397.16;;;6.73;100.00
38812;BME280;24553;51.640;-0.752;2022-12-29T10:13:43;99401.63;;;6.73;100.00
38812;BME280;24553;51.640;-0.752;2022-12-29T10:16:21;99398.81;;;6.74;100.00
38812;BME280;24553;51.640;-0.752;2022-12-29T10:24:39;99403.13;;;6.54;100.00
38812;BME280;24553;51.640;-0.752;2022-12-29T10:27:10;99411.44;;;6.58;100.00
38812;BME280;24553;51.640;-0.752;2022-12-29T10:29:40;99407.63;;;6.60;100.00
38812;BME280;24553;51.640;-0.752;2022-12-29T10:32:34;99427.25;;;6.86;100.00
38812;BME280;24553;51.640;-0.752;2022-12-29T10:35:05;99414.97;;;6.99;100.00
38812;BME280;24553;51.640;-0.752;2022-12-29T10:40:33;99413.81;;;7.09;100.00
38812;BME280;24553;51.640;-0.752;2022-12-29T10:43:02;99417.72;;;7.13;100.00
38812;BME280;24553;51.640;-0.752;2022-12-29T10:45:31;99416.50;;;7.15;100.00
38812;BME280;24553;51.640;-0.752;2022-12-29T10:48:10;99418.28;;;7.08;100.00
38812;BME280;24553;51.640;-0.752;2022-12-29T10:50:39;99414.75;;;6.94;100.00
38812;BME280;24553;51.640;-0.752;2022-12-29T10:53:15;99426.28;;;6.93;100.00
38812;BME280;24553;51.640;-0.752;2022-12-29T10:55:42;99425.56;;;7.06;100.00
38812;BME280;24553;51.640;-0.752;2022-12-29T10:58:11;99409.59;;;7.14;100.00
38812;BME280;24553;51.640;-0.752;2022-12-29T11:00:38;99417.72;;;7.13;100.00
38812;BME280;24553;51.640;-0.752;2022-12-29T11:05:52;99406.31;;;7.12;100.00
38812;BME280;24553;51.640;-0.752;2022-12-29T11:08:31;99423.91;;;7.33;100.00
38812;BME280;24553;51.640;-0.752;2022-12-29T11:11:04;99414.38;;;7.39;100.00
38812;BME280;24553;51.640;-0.752;2022-12-29T11:13:35;99426.00;;;7.51;100.00
38812;BME280;24553;51.640;-0.752;2022-12-29T11:16:11;99413.41;;;7.53;100.00
38812;BME280;24553;51.640;-0.752;2022-12-29T11:18:39;99425.63;;;7.54;100.00
38812;BME280;24553;51.640;-0.752;2022-12-29T11:21:31;99410.97;;;7.45;100.00
38812;BME280;24553;51.640;-0.752;2022-12-29T11:24:03;99416.22;;;7.45;100.00
38812;BME280;24553;51.640;-0.752;2022-12-29T11:26:30;99416.28;;;7.52;100.00
38812;BME280;24553;51.640;-0.752;2022-12-29T11:31:47;99415.38;;;7.38;100.00
38812;BME280;24553;51.640;-0.752;2022-12-29T11:34:23;99413.94;;;7.29;100.00
38812;BME280;24553;51.640;-0.752;2022-12-29T11:36:52;99406.59;;;7.24;100.00
38812;BME280;24553;51.640;-0.752;2022-12-29T11:39:31;99414.00;;;7.42;100.00
38812;BME280;24553;51.640;-0.752;2022-12-29T11:41:58;99425.75;;;7.39;100.00
38812;BME280;24553;51.640;-0.752;2022-12-29T11:44:23;99436.28;;;7.39;100.00
38812;BME280;24553;51.640;-0.752;2022-12-29T11:46:51;99420.50;;;7.46;100.00
38812;BME280;24553;51.640;-0.752;2022-12-29T11:49:22;99421.91;;;7.42;100.00
38812;BME280;24553;51.640;-0.752;2022-12-29T11:51:51;99425.69;;;7.33;100.00
38812;BME280;24553;51.640;-0.752;2022-12-29T11:54:35;99429.13;;;7.27;100.00
38812;BME280;24553;51.640;-0.752;2022-12-29T11:57:16;99426.09;;;7.30;100.00
38812;BME280;24553;51.640;-0.752;2022-12-29T11:59:48;99422.25;;;7.32;100.00
38812;BME280;24553;51.640;-0.752;2022-12-29T12:04:48;99427.63;;;7.59;100.00
38812;BME280;24553;51.640;-0.752;2022-12-29T12:07:20;99424.44;;;7.70;100.00
38812;BME280;24553;51.640;-0.752;2022-12-29T12:09:53;99418.78;;;7.73;100.00
38812;BME280;24553;51.640;-0.752;2022-12-29T12:12:30;99428.97;;;7.90;100.00
38812;BME280;24553;51.640;-0.752;2022-12-29T12:14:58;99434.25;;;7.83;100.00
38812;BME280;24553;51.640;-0.752;2022-12-29T12:17:39;99426.88;;;7.72;100.00
38812;BME280;24553;51.640;-0.752;2022-12-29T12:20:44;99434.84;;;7.85;100.00
38812;BME280;24553;51.640;-0.752;2022-12-29T12:25:57;99440.34;;;7.90;100.00
38812;BME280;24553;51.640;-0.752;2022-12-29T12:28:35;99425.09;;;7.92;100.00
38812;BME280;24553;51.640;-0.752;2022-12-29T12:31:11;99428.34;;;7.81;100.00
38812;BME280;24553;51.640;-0.752;2022-12-29T12:33:43;99421.59;;;7.72;100.00
38812;BME280;24553;51.640;-0.752;2022-12-29T12:44:35;99435.41;;;7.67;100.00
38812;BME280;24553;51.640;-0.752;2022-12-29T13:05:32;99438.19;;;8.27;100.00
38812;BME280;24553;51.640;-0.752;2022-12-29T13:16:39;99429.91;;;8.63;100.00
38812;BME280;24553;51.640;-0.752;2022-12-29T13:19:18;99416.69;;;8.63;100.00
38812;BME280;24553;51.640;-0.752;2022-12-29T13:21:53;99410.53;;;8.36;100.00
38812;BME280;24553;51.640;-0.752;2022-12-29T13:27:33;99431.88;;;8.15;100.00
38812;BME280;24553;51.640;-0.752;2022-12-29T13:30:19;99426.59;;;8.08;100.00
38812;BME280;24553;51.640;-0.752;2022-12-29T13:35:29;99434.06;;;8.04;100.00
38812;BME280;24553;51.640;-0.752;2022-12-29T13:38:03;99437.75;;;8.03;100.00
38812;BME280;24553;51.640;-0.752;2022-12-29T13:40:34;99445.66;;;8.03;100.00
38812;BME280;24553;51.640;-0.752;2022-12-29T13:43:03;99436.94;;;8.09;100.00
38812;BME280;24553;51.640;-0.752;2022-12-29T13:45:31;99447.72;;;8.21;100.00
38812;BME280;24553;51.640;-0.752;2022-12-29T13:48:04;99437.16;;;8.15;100.00
38812;BME280;24553;51.640;-0.752;2022-12-29T13:50:35;99439.25;;;8.39;100.00
38812;BME280;24553;51.640;-0.752;2022-12-29T13:55:58;99445.09;;;8.28;100.00
38812;BME280;24553;51.640;-0.752;2022-12-29T13:58:37;99448.75;;;8.27;100.00
38812;BME280;24553;51.640;-0.752;2022-12-29T14:01:12;99456.47;;;8.28;100.00
38812;BME280;24553;51.640;-0.752;2022-12-29T14:03:43;99449.53;;;8.21;100.00
38812;BME280;24553;51.640;-0.752;2022-12-29T14:06:22;99457.47;;;8.27;100.00
38812;BME280;24553;51.640;-0.752;2022-12-29T14:08:51;99449.34;;;8.36;100.00
38812;BME280;24553;51.640;-0.752;2022-12-29T14:11:21;99460.34;;;8.33;100.00
38812;BME280;24553;51.640;-0.752;2022-12-29T14:13:47;99466.59;;;8.18;100.00
38812;BME280;24553;51.640;-0.752;2022-12-29T14:16:42;99472.88;;;8.04;100.00
38812;BME280;24553;51.640;-0.752;2022-12-29T14:19:22;99483.38;;;7.91;100.00
38812;BME280;24553;51.640;-0.752;2022-12-29T14:21:55;99479.28;;;7.81;100.00
38812;BME280;24553;51.640;-0.752;2022-12-29T14:24:32;99485.38;;;7.75;100.00
38812;BME280;24553;51.640;-0.752;2022-12-29T14:34:59;99486.63;;;7.45;100.00
38812;BME280;24553;51.640;-0.752;2022-12-29T14:37:28;99488.69;;;7.49;100.00
38812;BME280;24553;51.640;-0.752;2022-12-29T14:42:40;99499.03;;;7.51;100.00
38812;BME280;24553;51.640;-0.752;2022-12-29T14:47:39;99497.47;;;7.63;100.00
38812;BME280;24553;51.640;-0.752;2022-12-29T14:52:57;99516.53;;;7.58;100.00
38812;BME280;24553;51.640;-0.752;2022-12-29T14:55:36;99518.50;;;7.50;100.00
38812;BME280;24553;51.640;-0.752;2022-12-29T15:00:38;99519.41;;;7.63;100.00
38812;BME280;24553;51.640;-0.752;2022-12-29T15:03:12;99519.56;;;7.55;100.00